Dulas, United Kingdom
Current Conditions -  °F | °C
As of 4:50 AM on Saturday 25 Oct 2014 (Local Time) from EGOV Reporting Station
Broken Clouds Broken Clouds  
Wind Chill: 55°   Ceiling: 4900
Heat Index: 55°   Visibility: 6mi
Dew Point: 46°   Wind: 22mph
Humidity: 72%   Direction: 220°SW
Pressure: 29.88"   Gusts: NA
Location:  53.37°N, 4.3°W
Report Text: EGOV 250350Z AUTO 22019KT 9999 BKN049/// 13/08 Q1012 RERA
Loading
Personal Weather Stations






























Interactive Weather Map
Tropical Storm Tracking
New forecast layout! Learn more

10-Day Weather Forecast

Advertisements
Track Severe Weather on mobile